sensor_id;sensor_type;location;lat;lon;timestamp;temperature;humidity
13186;DHT22;6658;53.080;7.428;2023-09-19T00:00:42;15.50;99.90
13186;DHT22;6658;53.080;7.428;2023-09-19T00:03:09;15.50;99.90
13186;DHT22;6658;53.080;7.428;2023-09-19T00:05:37;15.40;99.90
13186;DHT22;6658;53.080;7.428;2023-09-19T00:08:04;15.30;99.90
13186;DHT22;6658;53.080;7.428;2023-09-19T00:10:31;15.30;99.90
13186;DHT22;6658;53.080;7.428;2023-09-19T00:13:00;15.20;99.90
13186;DHT22;6658;53.080;7.428;2023-09-19T00:15:31;15.20;99.90
13186;DHT22;6658;53.080;7.428;2023-09-19T00:18:01;15.10;99.90
13186;DHT22;6658;53.080;7.428;2023-09-19T00:20:27;15.10;99.90
13186;DHT22;6658;53.080;7.428;2023-09-19T00:22:53;15.10;99.90
13186;DHT22;6658;53.080;7.428;2023-09-19T00:25:20;15.10;99.90
13186;DHT22;6658;53.080;7.428;2023-09-19T00:27:49;15.10;99.90
13186;DHT22;6658;53.080;7.428;2023-09-19T00:30:17;15.10;99.90
13186;DHT22;6658;53.080;7.428;2023-09-19T00:32:47;15.20;99.90
13186;DHT22;6658;53.080;7.428;2023-09-19T00:35:16;15.10;99.90
13186;DHT22;6658;53.080;7.428;2023-09-19T00:37:42;15.10;99.90
13186;DHT22;6658;53.080;7.428;2023-09-19T00:40:09;15.10;99.90
13186;DHT22;6658;53.080;7.428;2023-09-19T00:42:41;15.10;99.90
13186;DHT22;6658;53.080;7.428;2023-09-19T00:45:08;15.00;99.90
13186;DHT22;6658;53.080;7.428;2023-09-19T00:47:57;15.00;99.90
13186;DHT22;6658;53.080;7.428;2023-09-19T00:50:30;14.90;99.90
13186;DHT22;6658;53.080;7.428;2023-09-19T00:52:58;14.80;99.90
13186;DHT22;6658;53.080;7.428;2023-09-19T00:55:25;14.70;99.90
13186;DHT22;6658;53.080;7.428;2023-09-19T00:57:51;14.70;99.90
13186;DHT22;6658;53.080;7.428;2023-09-19T01:00:18;14.60;99.90
13186;DHT22;6658;53.080;7.428;2023-09-19T01:02:45;14.50;99.90
13186;DHT22;6658;53.080;7.428;2023-09-19T01:05:11;14.40;99.90
13186;DHT22;6658;53.080;7.428;2023-09-19T01:07:41;14.40;99.90
13186;DHT22;6658;53.080;7.428;2023-09-19T01:10:08;14.40;99.90
13186;DHT22;6658;53.080;7.428;2023-09-19T01:12:47;14.30;99.90
13186;DHT22;6658;53.080;7.428;2023-09-19T01:15:18;14.20;99.90
13186;DHT22;6658;53.080;7.428;2023-09-19T01:17:55;14.20;99.90
13186;DHT22;6658;53.080;7.428;2023-09-19T01:31:40;13.80;99.90
13186;DHT22;6658;53.080;7.428;2023-09-19T01:34:08;13.80;99.90
13186;DHT22;6658;53.080;7.428;2023-09-19T01:36:38;13.70;99.90
13186;DHT22;6658;53.080;7.428;2023-09-19T01:39:13;13.70;99.90
13186;DHT22;6658;53.080;7.428;2023-09-19T01:41:58;13.70;99.90
13186;DHT22;6658;53.080;7.428;2023-09-19T01:50:42;13.80;99.90
13186;DHT22;6658;53.080;7.428;2023-09-19T01:55:54;13.80;99.90
13186;DHT22;6658;53.080;7.428;2023-09-19T02:01:10;13.80;99.90
13186;DHT22;6658;53.080;7.428;2023-09-19T02:03:38;13.80;99.90
13186;DHT22;6658;53.080;7.428;2023-09-19T02:06:05;13.80;99.90
13186;DHT22;6658;53.080;7.428;2023-09-19T02:08:31;13.70;99.90
13186;DHT22;6658;53.080;7.428;2023-09-19T02:11:00;13.70;99.90
13186;DHT22;6658;53.080;7.428;2023-09-19T02:13:25;13.70;99.90
13186;DHT22;6658;53.080;7.428;2023-09-19T02:15:53;13.60;99.90
13186;DHT22;6658;53.080;7.428;2023-09-19T02:18:19;13.60;99.90
13186;DHT22;6658;53.080;7.428;2023-09-19T02:20:45;13.60;99.90
13186;DHT22;6658;53.080;7.428;2023-09-19T02:23:12;13.60;99.90
13186;DHT22;6658;53.080;7.428;2023-09-19T02:25:38;13.50;99.90
13186;DHT22;6658;53.080;7.428;2023-09-19T02:28:06;13.50;99.90
13186;DHT22;6658;53.080;7.428;2023-09-19T02:30:32;13.50;99.90
13186;DHT22;6658;53.080;7.428;2023-09-19T02:32:58;13.50;99.90
13186;DHT22;6658;53.080;7.428;2023-09-19T02:35:27;13.50;99.90
13186;DHT22;6658;53.080;7.428;2023-09-19T02:37:53;13.40;99.90
13186;DHT22;6658;53.080;7.428;2023-09-19T02:40:19;13.40;99.90
13186;DHT22;6658;53.080;7.428;2023-09-19T02:42:46;13.40;99.90
13186;DHT22;6658;53.080;7.428;2023-09-19T02:45:18;13.40;99.90
13186;DHT22;6658;53.080;7.428;2023-09-19T02:47:48;13.40;99.90
13186;DHT22;6658;53.080;7.428;2023-09-19T02:50:16;13.40;99.90
13186;DHT22;6658;53.080;7.428;2023-09-19T02:52:43;13.40;99.90
13186;DHT22;6658;53.080;7.428;2023-09-19T02:55:11;13.30;99.90
13186;DHT22;6658;53.080;7.428;2023-09-19T02:57:38;13.30;99.90
13186;DHT22;6658;53.080;7.428;2023-09-19T03:00:07;13.30;99.90
13186;DHT22;6658;53.080;7.428;2023-09-19T03:02:36;13.30;99.90
13186;DHT22;6658;53.080;7.428;2023-09-19T03:05:01;13.30;99.90
13186;DHT22;6658;53.080;7.428;2023-09-19T03:07:28;13.30;99.90
13186;DHT22;6658;53.080;7.428;2023-09-19T03:09:54;13.30;99.90
13186;DHT22;6658;53.080;7.428;2023-09-19T03:12:20;13.30;99.90
13186;DHT22;6658;53.080;7.428;2023-09-19T03:14:46;13.20;99.90
13186;DHT22;6658;53.080;7.428;2023-09-19T03:17:12;13.20;99.90
13186;DHT22;6658;53.080;7.428;2023-09-19T03:19:40;13.10;99.90
13186;DHT22;6658;53.080;7.428;2023-09-19T03:22:06;13.10;99.90
13186;DHT22;6658;53.080;7.428;2023-09-19T03:24:33;13.10;99.90
13186;DHT22;6658;53.080;7.428;2023-09-19T03:27:00;13.10;99.90
13186;DHT22;6658;53.080;7.428;2023-09-19T03:29:26;13.10;99.90
13186;DHT22;6658;53.080;7.428;2023-09-19T03:31:52;13.10;99.90
13186;DHT22;6658;53.080;7.428;2023-09-19T03:34:20;13.10;99.90
13186;DHT22;6658;53.080;7.428;2023-09-19T03:36:46;13.10;99.90
13186;DHT22;6658;53.080;7.428;2023-09-19T03:39:12;13.10;99.90
13186;DHT22;6658;53.080;7.428;2023-09-19T03:41:38;13.10;99.90
13186;DHT22;6658;53.080;7.428;2023-09-19T03:44:04;13.10;99.90
13186;DHT22;6658;53.080;7.428;2023-09-19T03:46:30;13.10;99.90
13186;DHT22;6658;53.080;7.428;2023-09-19T03:48:55;13.10;99.90
13186;DHT22;6658;53.080;7.428;2023-09-19T03:51:21;13.10;99.90
13186;DHT22;6658;53.080;7.428;2023-09-19T03:53:47;13.10;99.90
13186;DHT22;6658;53.080;7.428;2023-09-19T03:56:14;13.10;99.90
13186;DHT22;6658;53.080;7.428;2023-09-19T03:58:40;13.10;99.90
13186;DHT22;6658;53.080;7.428;2023-09-19T04:01:06;13.10;99.90
13186;DHT22;6658;53.080;7.428;2023-09-19T04:03:35;13.20;99.90
13186;DHT22;6658;53.080;7.428;2023-09-19T04:06:15;13.20;99.90
13186;DHT22;6658;53.080;7.428;2023-09-19T04:08:41;13.20;99.90
13186;DHT22;6658;53.080;7.428;2023-09-19T04:11:07;13.20;99.90
13186;DHT22;6658;53.080;7.428;2023-09-19T04:13:33;13.20;99.90
13186;DHT22;6658;53.080;7.428;2023-09-19T04:15:58;13.20;99.90
13186;DHT22;6658;53.080;7.428;2023-09-19T04:18:25;13.20;99.90
13186;DHT22;6658;53.080;7.428;2023-09-19T04:20:51;13.20;99.90
13186;DHT22;6658;53.080;7.428;2023-09-19T04:23:16;13.20;99.90
13186;DHT22;6658;53.080;7.428;2023-09-19T04:25:43;13.30;99.90
13186;DHT22;6658;53.080;7.428;2023-09-19T04:28:09;13.30;99.90
13186;DHT22;6658;53.080;7.428;2023-09-19T04:30:37;13.30;99.90
13186;DHT22;6658;53.080;7.428;2023-09-19T04:33:03;13.30;99.90
13186;DHT22;6658;53.080;7.428;2023-09-19T04:35:29;13.40;99.90
13186;DHT22;6658;53.080;7.428;2023-09-19T04:37:57;13.40;99.90
13186;DHT22;6658;53.080;7.428;2023-09-19T04:40:23;13.40;99.90
13186;DHT22;6658;53.080;7.428;2023-09-19T04:42:55;13.40;99.90
13186;DHT22;6658;53.080;7.428;2023-09-19T04:45:22;13.40;99.90
13186;DHT22;6658;53.080;7.428;2023-09-19T04:47:48;13.50;99.90
13186;DHT22;6658;53.080;7.428;2023-09-19T04:50:14;13.40;99.90
13186;DHT22;6658;53.080;7.428;2023-09-19T04:52:44;13.40;99.90
13186;DHT22;6658;53.080;7.428;2023-09-19T04:55:11;13.40;99.90
13186;DHT22;6658;53.080;7.428;2023-09-19T04:57:45;13.40;99.90
13186;DHT22;6658;53.080;7.428;2023-09-19T05:00:15;13.40;99.90
13186;DHT22;6658;53.080;7.428;2023-09-19T05:02:42;13.40;99.90
13186;DHT22;6658;53.080;7.428;2023-09-19T05:05:09;13.40;99.90
13186;DHT22;6658;53.080;7.428;2023-09-19T05:07:40;13.40;99.90
13186;DHT22;6658;53.080;7.428;2023-09-19T05:10:07;13.50;99.90
13186;DHT22;6658;53.080;7.428;2023-09-19T05:12:34;13.50;99.90
13186;DHT22;6658;53.080;7.428;2023-09-19T05:15:02;13.60;99.90
13186;DHT22;6658;53.080;7.428;2023-09-19T05:17:28;13.60;99.90
13186;DHT22;6658;53.080;7.428;2023-09-19T05:19:53;13.70;99.90
13186;DHT22;6658;53.080;7.428;2023-09-19T05:22:19;13.70;99.90
13186;DHT22;6658;53.080;7.428;2023-09-19T05:24:45;13.80;99.90
13186;DHT22;6658;53.080;7.428;2023-09-19T05:27:14;13.90;99.90
13186;DHT22;6658;53.080;7.428;2023-09-19T05:29:45;13.90;99.90
13186;DHT22;6658;53.080;7.428;2023-09-19T05:32:11;14.00;99.90
13186;DHT22;6658;53.080;7.428;2023-09-19T05:34:37;14.00;99.90
13186;DHT22;6658;53.080;7.428;2023-09-19T05:37:04;14.10;99.90
13186;DHT22;6658;53.080;7.428;2023-09-19T05:39:32;14.10;99.90
13186;DHT22;6658;53.080;7.428;2023-09-19T05:41:58;14.20;99.90
13186;DHT22;6658;53.080;7.428;2023-09-19T05:44:25;14.20;99.90
13186;DHT22;6658;53.080;7.428;2023-09-19T05:46:51;14.30;99.90
13186;DHT22;6658;53.080;7.428;2023-09-19T05:49:17;14.30;99.90
13186;DHT22;6658;53.080;7.428;2023-09-19T05:51:43;14.30;99.90
13186;DHT22;6658;53.080;7.428;2023-09-19T05:54:09;14.30;99.90
13186;DHT22;6658;53.080;7.428;2023-09-19T05:56:36;14.30;99.90
13186;DHT22;6658;53.080;7.428;2023-09-19T05:59:02;14.40;99.90
13186;DHT22;6658;53.080;7.428;2023-09-19T06:01:29;14.40;99.90
13186;DHT22;6658;53.080;7.428;2023-09-19T06:03:56;14.40;99.90
13186;DHT22;6658;53.080;7.428;2023-09-19T06:06:22;14.40;99.90
13186;DHT22;6658;53.080;7.428;2023-09-19T06:08:49;14.40;99.90
13186;DHT22;6658;53.080;7.428;2023-09-19T06:11:16;14.40;99.90
13186;DHT22;6658;53.080;7.428;2023-09-19T06:13:42;14.50;99.90
13186;DHT22;6658;53.080;7.428;2023-09-19T06:16:07;14.50;99.90
13186;DHT22;6658;53.080;7.428;2023-09-19T06:18:34;14.50;99.90
13186;DHT22;6658;53.080;7.428;2023-09-19T06:21:00;14.50;99.90
13186;DHT22;6658;53.080;7.428;2023-09-19T06:23:30;14.50;99.90
13186;DHT22;6658;53.080;7.428;2023-09-19T06:25:56;14.50;99.90
13186;DHT22;6658;53.080;7.428;2023-09-19T06:28:23;14.50;99.90
13186;DHT22;6658;53.080;7.428;2023-09-19T06:30:49;14.50;99.90
13186;DHT22;6658;53.080;7.428;2023-09-19T06:33:15;14.50;99.90
13186;DHT22;6658;53.080;7.428;2023-09-19T06:35:42;14.50;99.90
13186;DHT22;6658;53.080;7.428;2023-09-19T06:38:12;14.60;99.90
13186;DHT22;6658;53.080;7.428;2023-09-19T06:40:38;14.70;99.90
13186;DHT22;6658;53.080;7.428;2023-09-19T06:43:05;14.70;99.90
13186;DHT22;6658;53.080;7.428;2023-09-19T06:45:31;14.80;99.90
13186;DHT22;6658;53.080;7.428;2023-09-19T06:47:57;14.90;99.90
13186;DHT22;6658;53.080;7.428;2023-09-19T06:50:25;15.10;99.90
13186;DHT22;6658;53.080;7.428;2023-09-19T06:52:53;15.30;99.90
13186;DHT22;6658;53.080;7.428;2023-09-19T06:55:20;15.40;99.90
13186;DHT22;6658;53.080;7.428;2023-09-19T06:57:48;15.60;99.90
13186;DHT22;6658;53.080;7.428;2023-09-19T07:00:15;15.80;99.90
13186;DHT22;6658;53.080;7.428;2023-09-19T07:02:42;15.80;99.90
13186;DHT22;6658;53.080;7.428;2023-09-19T07:05:08;15.90;99.90
13186;DHT22;6658;53.080;7.428;2023-09-19T07:07:34;16.00;99.90
13186;DHT22;6658;53.080;7.428;2023-09-19T07:10:04;16.20;99.90
13186;DHT22;6658;53.080;7.428;2023-09-19T07:12:36;16.40;99.90
13186;DHT22;6658;53.080;7.428;2023-09-19T07:15:02;16.60;99.90
13186;DHT22;6658;53.080;7.428;2023-09-19T07:17:28;16.70;99.90
13186;DHT22;6658;53.080;7.428;2023-09-19T07:19:55;16.80;99.90
13186;DHT22;6658;53.080;7.428;2023-09-19T07:22:20;16.80;99.90
13186;DHT22;6658;53.080;7.428;2023-09-19T07:24:46;17.00;99.90
13186;DHT22;6658;53.080;7.428;2023-09-19T07:27:14;17.00;99.90
13186;DHT22;6658;53.080;7.428;2023-09-19T07:29:39;17.10;99.90
13186;DHT22;6658;53.080;7.428;2023-09-19T07:32:05;17.10;99.90
13186;DHT22;6658;53.080;7.428;2023-09-19T07:34:32;17.50;99.90
13186;DHT22;6658;53.080;7.428;2023-09-19T07:36:58;17.70;99.90
13186;DHT22;6658;53.080;7.428;2023-09-19T07:39:23;17.90;99.90
13186;DHT22;6658;53.080;7.428;2023-09-19T07:41:49;18.00;99.90
13186;DHT22;6658;53.080;7.428;2023-09-19T07:44:15;18.10;99.90
13186;DHT22;6658;53.080;7.428;2023-09-19T07:46:40;18.00;99.90
13186;DHT22;6658;53.080;7.428;2023-09-19T07:49:06;17.90;99.90
13186;DHT22;6658;53.080;7.428;2023-09-19T07:51:32;17.90;99.90
13186;DHT22;6658;53.080;7.428;2023-09-19T07:53:58;18.00;99.90
13186;DHT22;6658;53.080;7.428;2023-09-19T07:56:24;18.00;99.90
13186;DHT22;6658;53.080;7.428;2023-09-19T07:58:51;18.10;99.90
13186;DHT22;6658;53.080;7.428;2023-09-19T08:01:17;18.30;99.90
13186;DHT22;6658;53.080;7.428;2023-09-19T08:03:43;18.60;99.90
13186;DHT22;6658;53.080;7.428;2023-09-19T08:06:09;18.70;99.90
13186;DHT22;6658;53.080;7.428;2023-09-19T08:08:36;18.50;99.90
13186;DHT22;6658;53.080;7.428;2023-09-19T08:11:05;18.40;99.90
13186;DHT22;6658;53.080;7.428;2023-09-19T08:13:41;18.80;99.90
13186;DHT22;6658;53.080;7.428;2023-09-19T08:16:11;19.20;99.90
13186;DHT22;6658;53.080;7.428;2023-09-19T08:18:37;19.60;99.90
13186;DHT22;6658;53.080;7.428;2023-09-19T08:21:05;19.90;99.90
13186;DHT22;6658;53.080;7.428;2023-09-19T08:23:33;19.80;99.90
13186;DHT22;6658;53.080;7.428;2023-09-19T08:25:59;19.50;99.90
13186;DHT22;6658;53.080;7.428;2023-09-19T08:28:28;19.00;99.90
13186;DHT22;6658;53.080;7.428;2023-09-19T08:30:55;18.60;99.90
13186;DHT22;6658;53.080;7.428;2023-09-19T08:33:21;18.30;99.90
13186;DHT22;6658;53.080;7.428;2023-09-19T08:35:46;18.20;99.90
13186;DHT22;6658;53.080;7.428;2023-09-19T08:38:12;18.10;99.90
13186;DHT22;6658;53.080;7.428;2023-09-19T08:40:39;18.20;99.90
13186;DHT22;6658;53.080;7.428;2023-09-19T08:43:07;18.30;99.90
13186;DHT22;6658;53.080;7.428;2023-09-19T08:45:34;18.40;99.90
13186;DHT22;6658;53.080;7.428;2023-09-19T08:48:23;18.30;99.90
13186;DHT22;6658;53.080;7.428;2023-09-19T08:50:55;18.00;99.90
13186;DHT22;6658;53.080;7.428;2023-09-19T08:53:51;17.90;99.90
13186;DHT22;6658;53.080;7.428;2023-09-19T08:56:18;18.00;99.90
13186;DHT22;6658;53.080;7.428;2023-09-19T08:59:00;18.10;99.90
13186;DHT22;6658;53.080;7.428;2023-09-19T09:01:31;18.10;99.90
13186;DHT22;6658;53.080;7.428;2023-09-19T09:03:58;18.20;99.90
13186;DHT22;6658;53.080;7.428;2023-09-19T09:06:25;18.40;99.90
13186;DHT22;6658;53.080;7.428;2023-09-19T09:08:51;18.70;99.90
13186;DHT22;6658;53.080;7.428;2023-09-19T09:11:18;18.90;99.90
13186;DHT22;6658;53.080;7.428;2023-09-19T09:13:47;19.40;99.90
13186;DHT22;6658;53.080;7.428;2023-09-19T09:16:14;19.60;99.90
13186;DHT22;6658;53.080;7.428;2023-09-19T09:18:44;19.70;99.90
13186;DHT22;6658;53.080;7.428;2023-09-19T09:21:11;19.60;99.90
13186;DHT22;6658;53.080;7.428;2023-09-19T09:23:37;19.60;99.90
13186;DHT22;6658;53.080;7.428;2023-09-19T09:26:02;19.60;99.90
13186;DHT22;6658;53.080;7.428;2023-09-19T09:28:30;19.90;99.90
13186;DHT22;6658;53.080;7.428;2023-09-19T09:31:00;20.00;99.90
13186;DHT22;6658;53.080;7.428;2023-09-19T09:33:34;20.10;99.90
13186;DHT22;6658;53.080;7.428;2023-09-19T09:36:00;20.10;99.90
13186;DHT22;6658;53.080;7.428;2023-09-19T09:38:29;20.20;99.90
13186;DHT22;6658;53.080;7.428;2023-09-19T09:40:58;20.20;99.90
13186;DHT22;6658;53.080;7.428;2023-09-19T09:43:36;20.20;99.90
13186;DHT22;6658;53.080;7.428;2023-09-19T09:49:02;20.40;99.90
13186;DHT22;6658;53.080;7.428;2023-09-19T09:51:59;20.40;99.90
13186;DHT22;6658;53.080;7.428;2023-09-19T09:54:27;20.50;99.90
13186;DHT22;6658;53.080;7.428;2023-09-19T09:57:00;20.60;99.90
13186;DHT22;6658;53.080;7.428;2023-09-19T09:59:48;20.70;99.90
13186;DHT22;6658;53.080;7.428;2023-09-19T10:02:30;20.60;99.90
13186;DHT22;6658;53.080;7.428;2023-09-19T10:05:19;20.50;99.90
13186;DHT22;6658;53.080;7.428;2023-09-19T10:07:54;20.40;99.90
13186;DHT22;6658;53.080;7.428;2023-09-19T10:10:33;20.50;99.90
13186;DHT22;6658;53.080;7.428;2023-09-19T10:13:11;20.70;99.90
13186;DHT22;6658;53.080;7.428;2023-09-19T10:15:39;21.20;99.90
13186;DHT22;6658;53.080;7.428;2023-09-19T10:18:12;21.40;99.90
13186;DHT22;6658;53.080;7.428;2023-09-19T10:20:45;21.30;99.90
13186;DHT22;6658;53.080;7.428;2023-09-19T10:23:12;21.00;99.90
13186;DHT22;6658;53.080;7.428;2023-09-19T10:25:42;21.10;99.90
13186;DHT22;6658;53.080;7.428;2023-09-19T10:28:10;21.10;99.90
13186;DHT22;6658;53.080;7.428;2023-09-19T10:30:53;21.10;99.90
13186;DHT22;6658;53.080;7.428;2023-09-19T10:33:25;20.90;99.90
13186;DHT22;6658;53.080;7.428;2023-09-19T10:35:51;20.80;99.90
13186;DHT22;6658;53.080;7.428;2023-09-19T10:38:18;20.50;99.90
13186;DHT22;6658;53.080;7.428;2023-09-19T10:40:49;20.40;99.90
13186;DHT22;6658;53.080;7.428;2023-09-19T10:43:17;20.30;99.90
13186;DHT22;6658;53.080;7.428;2023-09-19T10:45:44;20.20;99.90
13186;DHT22;6658;53.080;7.428;2023-09-19T10:48:12;20.00;99.90
13186;DHT22;6658;53.080;7.428;2023-09-19T10:53:13;19.90;99.90
13186;DHT22;6658;53.080;7.428;2023-09-19T10:55:40;19.70;99.90
13186;DHT22;6658;53.080;7.428;2023-09-19T10:58:07;19.80;99.90
13186;DHT22;6658;53.080;7.428;2023-09-19T11:00:59;19.90;99.90
13186;DHT22;6658;53.080;7.428;2023-09-19T11:03:31;20.00;99.90
13186;DHT22;6658;53.080;7.428;2023-09-19T11:06:10;20.20;99.90
13186;DHT22;6658;53.080;7.428;2023-09-19T11:11:43;20.40;99.90
13186;DHT22;6658;53.080;7.428;2023-09-19T11:30:52;20.70;99.90
13186;DHT22;6658;53.080;7.428;2023-09-19T11:36:07;20.60;99.90
13186;DHT22;6658;53.080;7.428;2023-09-19T11:49:17;20.80;99.90
13186;DHT22;6658;53.080;7.428;2023-09-19T11:51:50;20.70;99.90
13186;DHT22;6658;53.080;7.428;2023-09-19T11:54:20;20.50;99.90
13186;DHT22;6658;53.080;7.428;2023-09-19T11:56:51;20.50;99.90
13186;DHT22;6658;53.080;7.428;2023-09-19T11:59:24;20.70;99.90
13186;DHT22;6658;53.080;7.428;2023-09-19T12:01:55;21.00;99.90
13186;DHT22;6658;53.080;7.428;2023-09-19T12:04:38;21.00;99.90
13186;DHT22;6658;53.080;7.428;2023-09-19T12:07:14;21.00;99.90
13186;DHT22;6658;53.080;7.428;2023-09-19T12:09:45;21.00;99.90
13186;DHT22;6658;53.080;7.428;2023-09-19T12:12:24;20.90;99.90
13186;DHT22;6658;53.080;7.428;2023-09-19T12:14:54;20.70;99.90
13186;DHT22;6658;53.080;7.428;2023-09-19T12:17:20;20.60;99.90
13186;DHT22;6658;53.080;7.428;2023-09-19T12:19:56;20.50;99.90
13186;DHT22;6658;53.080;7.428;2023-09-19T12:22:22;20.50;99.90
13186;DHT22;6658;53.080;7.428;2023-09-19T12:24:48;20.50;99.90
13186;DHT22;6658;53.080;7.428;2023-09-19T12:27:14;20.60;99.90
13186;DHT22;6658;53.080;7.428;2023-09-19T12:29:48;20.80;99.90
13186;DHT22;6658;53.080;7.428;2023-09-19T12:32:41;20.90;99.90
13186;DHT22;6658;53.080;7.428;2023-09-19T12:35:07;20.90;99.90
13186;DHT22;6658;53.080;7.428;2023-09-19T12:37:36;20.80;99.90
13186;DHT22;6658;53.080;7.428;2023-09-19T12:40:07;20.70;99.90
13186;DHT22;6658;53.080;7.428;2023-09-19T12:42:54;20.60;99.90
13186;DHT22;6658;53.080;7.428;2023-09-19T12:45:30;20.50;99.90
13186;DHT22;6658;53.080;7.428;2023-09-19T12:48:21;20.20;99.90
13186;DHT22;6658;53.080;7.428;2023-09-19T12:53:34;19.70;99.90
13186;DHT22;6658;53.080;7.428;2023-09-19T12:56:03;19.60;99.90
13186;DHT22;6658;53.080;7.428;2023-09-19T12:58:34;19.60;99.90
13186;DHT22;6658;53.080;7.428;2023-09-19T13:01:00;19.90;99.90
13186;DHT22;6658;53.080;7.428;2023-09-19T13:03:28;20.10;99.90
13186;DHT22;6658;53.080;7.428;2023-09-19T13:06:01;20.20;99.90
13186;DHT22;6658;53.080;7.428;2023-09-19T13:08:34;20.00;99.90
13186;DHT22;6658;53.080;7.428;2023-09-19T13:11:07;19.90;99.90
13186;DHT22;6658;53.080;7.428;2023-09-19T13:13:39;19.80;99.90
13186;DHT22;6658;53.080;7.428;2023-09-19T13:16:07;19.90;99.90
13186;DHT22;6658;53.080;7.428;2023-09-19T13:18:51;19.80;99.90
13186;DHT22;6658;53.080;7.428;2023-09-19T13:21:29;19.80;99.90
13186;DHT22;6658;53.080;7.428;2023-09-19T13:24:24;19.80;99.90
13186;DHT22;6658;53.080;7.428;2023-09-19T13:26:53;19.70;99.90
13186;DHT22;6658;53.080;7.428;2023-09-19T13:29:19;19.60;99.90
13186;DHT22;6658;53.080;7.428;2023-09-19T13:31:48;19.50;99.90
13186;DHT22;6658;53.080;7.428;2023-09-19T13:34:15;19.50;99.90
13186;DHT22;6658;53.080;7.428;2023-09-19T13:36:43;19.40;99.90
13186;DHT22;6658;53.080;7.428;2023-09-19T13:39:09;19.40;99.90
13186;DHT22;6658;53.080;7.428;2023-09-19T13:41:35;19.40;99.90
13186;DHT22;6658;53.080;7.428;2023-09-19T13:44:04;19.50;99.90
13186;DHT22;6658;53.080;7.428;2023-09-19T13:46:31;19.50;99.90
13186;DHT22;6658;53.080;7.428;2023-09-19T13:48:59;19.50;99.90
13186;DHT22;6658;53.080;7.428;2023-09-19T13:51:28;19.50;99.90
13186;DHT22;6658;53.080;7.428;2023-09-19T13:53:55;19.60;99.90
13186;DHT22;6658;53.080;7.428;2023-09-19T13:56:21;19.60;99.90
13186;DHT22;6658;53.080;7.428;2023-09-19T13:58:47;19.60;99.90
13186;DHT22;6658;53.080;7.428;2023-09-19T14:01:13;19.50;99.90
13186;DHT22;6658;53.080;7.428;2023-09-19T14:03:42;19.50;99.90
13186;DHT22;6658;53.080;7.428;2023-09-19T14:06:17;19.50;99.90
13186;DHT22;6658;53.080;7.428;2023-09-19T14:08:44;19.60;99.90
13186;DHT22;6658;53.080;7.428;2023-09-19T14:11:13;19.60;99.90
13186;DHT22;6658;53.080;7.428;2023-09-19T14:13:42;19.60;99.90
13186;DHT22;6658;53.080;7.428;2023-09-19T14:16:12;19.50;99.90
13186;DHT22;6658;53.080;7.428;2023-09-19T14:18:38;19.50;99.90
13186;DHT22;6658;53.080;7.428;2023-09-19T14:21:05;19.40;99.90
13186;DHT22;6658;53.080;7.428;2023-09-19T14:23:37;19.40;99.90
13186;DHT22;6658;53.080;7.428;2023-09-19T14:26:04;19.40;99.90
13186;DHT22;6658;53.080;7.428;2023-09-19T14:28:31;19.30;99.90
13186;DHT22;6658;53.080;7.428;2023-09-19T14:31:06;19.30;99.90
13186;DHT22;6658;53.080;7.428;2023-09-19T14:33:32;19.30;99.90
13186;DHT22;6658;53.080;7.428;2023-09-19T14:35:58;19.30;99.90
13186;DHT22;6658;53.080;7.428;2023-09-19T14:38:24;19.30;99.90
13186;DHT22;6658;53.080;7.428;2023-09-19T14:40:59;19.30;99.90
13186;DHT22;6658;53.080;7.428;2023-09-19T14:43:25;19.30;99.90
13186;DHT22;6658;53.080;7.428;2023-09-19T14:45:51;19.30;99.90
13186;DHT22;6658;53.080;7.428;2023-09-19T14:48:17;19.40;99.90
13186;DHT22;6658;53.080;7.428;2023-09-19T14:50:42;19.50;99.90
13186;DHT22;6658;53.080;7.428;2023-09-19T14:53:09;19.70;99.90
13186;DHT22;6658;53.080;7.428;2023-09-19T14:55:39;19.80;99.90
13186;DHT22;6658;53.080;7.428;2023-09-19T14:58:07;19.90;99.90
13186;DHT22;6658;53.080;7.428;2023-09-19T15:00:33;19.90;99.90
13186;DHT22;6658;53.080;7.428;2023-09-19T15:03:00;19.80;99.90
13186;DHT22;6658;53.080;7.428;2023-09-19T15:05:27;19.80;99.90
13186;DHT22;6658;53.080;7.428;2023-09-19T15:07:55;19.80;99.90
13186;DHT22;6658;53.080;7.428;2023-09-19T15:10:23;19.80;99.90
13186;DHT22;6658;53.080;7.428;2023-09-19T15:12:48;19.80;99.90
13186;DHT22;6658;53.080;7.428;2023-09-19T15:15:14;19.80;99.90
13186;DHT22;6658;53.080;7.428;2023-09-19T15:17:40;19.80;99.90
13186;DHT22;6658;53.080;7.428;2023-09-19T15:20:07;19.80;99.90
13186;DHT22;6658;53.080;7.428;2023-09-19T15:22:33;19.80;99.90
13186;DHT22;6658;53.080;7.428;2023-09-19T15:25:00;19.80;99.90
13186;DHT22;6658;53.080;7.428;2023-09-19T15:27:28;19.80;99.90
13186;DHT22;6658;53.080;7.428;2023-09-19T15:29:56;19.70;99.90
13186;DHT22;6658;53.080;7.428;2023-09-19T15:32:24;19.70;99.90
13186;DHT22;6658;53.080;7.428;2023-09-19T15:34:49;19.70;99.90
13186;DHT22;6658;53.080;7.428;2023-09-19T15:37:15;19.60;99.90
13186;DHT22;6658;53.080;7.428;2023-09-19T15:39:41;19.60;99.90
13186;DHT22;6658;53.080;7.428;2023-09-19T15:42:07;19.60;99.90
13186;DHT22;6658;53.080;7.428;2023-09-19T15:44:33;19.60;99.90
13186;DHT22;6658;53.080;7.428;2023-09-19T15:46:59;19.60;99.90
13186;DHT22;6658;53.080;7.428;2023-09-19T15:49:25;19.50;99.90
13186;DHT22;6658;53.080;7.428;2023-09-19T15:51:50;19.40;99.90
13186;DHT22;6658;53.080;7.428;2023-09-19T15:54:17;19.40;99.90
13186;DHT22;6658;53.080;7.428;2023-09-19T15:56:44;19.30;99.90
13186;DHT22;6658;53.080;7.428;2023-09-19T15:59:10;19.30;99.90
13186;DHT22;6658;53.080;7.428;2023-09-19T16:01:38;19.20;99.90
13186;DHT22;6658;53.080;7.428;2023-09-19T16:04:04;19.10;99.90
13186;DHT22;6658;53.080;7.428;2023-09-19T16:06:31;19.10;99.90
13186;DHT22;6658;53.080;7.428;2023-09-19T16:08:58;19.00;99.90
13186;DHT22;6658;53.080;7.428;2023-09-19T16:11:26;19.00;99.90
13186;DHT22;6658;53.080;7.428;2023-09-19T16:13:52;18.90;99.90
13186;DHT22;6658;53.080;7.428;2023-09-19T16:16:20;18.90;99.90
13186;DHT22;6658;53.080;7.428;2023-09-19T16:21:14;18.90;99.90
13186;DHT22;6658;53.080;7.428;2023-09-19T16:23:44;18.90;99.90
13186;DHT22;6658;53.080;7.428;2023-09-19T16:26:09;18.80;99.90
13186;DHT22;6658;53.080;7.428;2023-09-19T16:28:37;18.90;99.90
13186;DHT22;6658;53.080;7.428;2023-09-19T16:31:04;18.80;99.90
13186;DHT22;6658;53.080;7.428;2023-09-19T16:33:32;18.80;99.90
13186;DHT22;6658;53.080;7.428;2023-09-19T16:35:58;18.80;99.90
13186;DHT22;6658;53.080;7.428;2023-09-19T16:38:27;18.80;99.90
13186;DHT22;6658;53.080;7.428;2023-09-19T16:40:57;18.80;99.90
13186;DHT22;6658;53.080;7.428;2023-09-19T16:43:27;18.80;99.90
13186;DHT22;6658;53.080;7.428;2023-09-19T16:45:54;18.80;99.90
13186;DHT22;6658;53.080;7.428;2023-09-19T16:48:24;18.80;99.90
13186;DHT22;6658;53.080;7.428;2023-09-19T16:50:54;18.80;99.90
13186;DHT22;6658;53.080;7.428;2023-09-19T16:53:20;18.80;99.90
13186;DHT22;6658;53.080;7.428;2023-09-19T16:55:47;18.80;99.90
13186;DHT22;6658;53.080;7.428;2023-09-19T16:58:13;18.80;99.90
13186;DHT22;6658;53.080;7.428;2023-09-19T17:00:39;18.70;99.90